createdAt,value
2022-08-05T00:01:31.030Z,48.90
2022-08-05T00:04:14.759Z,49.47
2022-08-05T00:06:41.222Z,49.57
2022-08-05T00:09:12.606Z,50.16
2022-08-05T00:11:40.398Z,50.50
2022-08-05T00:14:17.097Z,50.55
2022-08-05T00:16:52.041Z,49.98
2022-08-05T00:19:24.901Z,49.47
2022-08-05T00:21:59.748Z,50.17
2022-08-05T00:24:30.919Z,49.84
2022-08-05T00:26:58.826Z,49.90
2022-08-05T00:29:26.046Z,49.81
2022-08-05T00:32:13.194Z,49.97
2022-08-05T00:35:04.245Z,49.42
2022-08-05T00:37:50.617Z,49.01
2022-08-05T00:40:26.838Z,49.30
2022-08-05T00:42:56.653Z,49.20
2022-08-05T00:45:28.293Z,49.62
2022-08-05T00:48:09.516Z,50.48
2022-08-05T00:50:37.421Z,50.59
2022-08-05T00:53:09.639Z,51.26
2022-08-05T00:55:51.010Z,52.17
2022-08-05T00:58:19.109Z,52.14
2022-08-05T01:00:47.636Z,53.21
2022-08-05T01:03:22.973Z,53.42
2022-08-05T01:05:51.188Z,53.09
2022-08-05T01:08:41.695Z,53.18
2022-08-05T01:11:33.284Z,53.72
2022-08-05T01:14:33.957Z,52.73
2022-08-05T01:17:04.698Z,51.73
2022-08-05T01:20:01.160Z,51.82
2022-08-05T01:22:28.166Z,51.52
2022-08-05T01:25:09.922Z,51.42
2022-08-05T01:28:00.557Z,50.68
2022-08-05T01:30:34.727Z,50.75
2022-08-05T01:33:06.231Z,50.70
2022-08-05T01:35:50.837Z,50.48
2022-08-05T01:38:27.016Z,50.27
2022-08-05T01:40:57.301Z,50.00
2022-08-05T01:43:25.991Z,50.10
2022-08-05T01:45:56.668Z,50.51
2022-08-05T01:48:25.073Z,50.19
2022-08-05T01:51:20.090Z,49.83
2022-08-05T01:53:57.230Z,49.95
2022-08-05T01:58:11.254Z,49.74
2022-08-05T01:59:20.438Z,49.67
2022-08-05T02:01:49.988Z,50.02
2022-08-05T02:04:20.177Z,49.72
2022-08-05T02:06:47.978Z,50.56
2022-08-05T02:09:16.344Z,50.46
2022-08-05T02:11:58.925Z,50.66
2022-08-05T02:14:32.342Z,51.75
2022-08-05T02:17:26.296Z,52.10
2022-08-05T02:20:01.969Z,52.35
2022-08-05T02:22:32.907Z,53.31
2022-08-05T02:25:12.615Z,54.61
2022-08-05T02:27:59.700Z,54.39
2022-08-05T02:30:35.381Z,54.94
2022-08-05T02:33:04.696Z,56.08
2022-08-05T02:35:38.600Z,56.45
2022-08-05T02:38:19.469Z,56.97
2022-08-05T02:40:46.756Z,57.76
2022-08-05T02:43:16.941Z,59.54
2022-08-05T02:45:51.903Z,62.62
2022-08-05T02:48:29.088Z,65.47
2022-08-05T02:50:59.791Z,63.70
2022-08-05T02:53:28.550Z,65.48
2022-08-05T02:56:06.702Z,66.17
2022-08-05T02:58:36.079Z,65.42
2022-08-05T03:01:03.305Z,67.10
2022-08-05T03:03:33.895Z,67.42
2022-08-05T03:06:54.853Z,68.94
2022-08-05T03:09:07.788Z,68.73
2022-08-05T03:11:57.244Z,70.17
2022-08-05T03:14:20.865Z,68.19
2022-08-05T03:16:47.578Z,66.75
2022-08-05T03:19:20.273Z,66.73
2022-08-05T03:22:01.338Z,65.58
2022-08-05T03:24:30.672Z,65.55
2022-08-05T03:26:59.832Z,65.92
2022-08-05T03:29:45.269Z,65.90
2022-08-05T03:32:15.373Z,64.45
2022-08-05T03:34:51.314Z,65.93
2022-08-05T03:37:18.894Z,65.57
2022-08-05T03:40:00.871Z,66.47
2022-08-05T03:42:29.124Z,66.55
2022-08-05T03:44:58.499Z,66.21
2022-08-05T03:47:25.533Z,66.12
2022-08-05T03:49:57.359Z,66.06
2022-08-05T03:52:37.258Z,66.54
2022-08-05T03:56:01.184Z,65.86
2022-08-05T03:58:16.260Z,66.48
2022-08-05T04:00:44.448Z,66.57
2022-08-05T04:03:28.554Z,66.70
2022-08-05T04:05:58.019Z,67.76
2022-08-05T04:08:34.883Z,66.71
2022-08-05T04:11:05.116Z,66.94
2022-08-05T04:13:49.989Z,67.45
2022-08-05T04:16:24.116Z,68.90
2022-08-05T04:18:54.000Z,68.39
2022-08-05T04:22:08.862Z,68.11
2022-08-05T04:24:09.159Z,67.77
2022-08-05T04:26:45.574Z,67.83
2022-08-05T04:29:13.349Z,68.11
2022-08-05T04:31:41.007Z,67.81
2022-08-05T04:34:32.024Z,67.66
2022-08-05T04:36:55.922Z,67.76
2022-08-05T04:39:22.760Z,67.42
2022-08-05T04:41:50.968Z,67.09
2022-08-05T04:44:21.514Z,67.72
2022-08-05T04:46:55.649Z,67.66
2022-08-05T04:49:24.640Z,67.58
2022-08-05T04:52:05.165Z,66.76
2022-08-05T04:54:34.389Z,67.68
2022-08-05T04:57:01.194Z,68.16
2022-08-05T04:59:38.546Z,68.80
2022-08-05T05:02:37.655Z,68.41
2022-08-05T05:04:52.866Z,68.93
2022-08-05T05:07:29.403Z,68.62
2022-08-05T05:09:58.571Z,68.59
2022-08-05T05:12:27.323Z,69.30
2022-08-05T05:14:54.215Z,69.85
2022-08-05T05:17:24.366Z,69.97
2022-08-05T05:19:56.469Z,69.50
2022-08-05T05:22:26.016Z,69.63
2022-08-05T05:24:57.109Z,69.56
2022-08-05T05:27:24.950Z,69.64
2022-08-05T05:30:15.539Z,69.34
2022-08-05T05:33:00.123Z,68.90
2022-08-05T05:35:34.169Z,68.53
2022-08-05T05:38:03.428Z,68.74
2022-08-05T05:40:33.360Z,68.02
2022-08-05T05:43:02.163Z,68.60
2022-08-05T05:45:29.201Z,67.60
2022-08-05T05:48:07.047Z,67.49
2022-08-05T05:50:44.076Z,67.78
2022-08-05T05:53:21.215Z,68.89
2022-08-05T05:55:52.197Z,69.43
2022-08-05T05:58:30.236Z,68.84
2022-08-05T06:01:11.977Z,68.04
2022-08-05T06:03:53.629Z,66.50
2022-08-05T06:06:27.926Z,64.67
2022-08-05T06:08:58.450Z,64.50
2022-08-05T06:11:24.970Z,64.57
2022-08-05T06:13:54.035Z,65.77
2022-08-05T06:16:28.286Z,65.69
2022-08-05T06:19:00.883Z,66.48
2022-08-05T06:21:35.755Z,66.68
2022-08-05T06:24:12.102Z,65.49
2022-08-05T06:26:51.295Z,67.03
2022-08-05T06:29:24.673Z,67.04
2022-08-05T06:32:20.822Z,63.72
2022-08-05T06:34:48.396Z,66.52
2022-08-05T06:37:55.685Z,65.07
2022-08-05T06:40:07.257Z,64.71
2022-08-05T06:42:33.714Z,64.30
2022-08-05T06:45:00.187Z,64.01
2022-08-05T06:48:36.743Z,63.45
2022-08-05T06:50:18.832Z,63.95
2022-08-05T06:52:58.847Z,65.32
2022-08-05T06:55:36.338Z,65.88
2022-08-05T06:58:20.040Z,64.69
2022-08-05T07:00:50.367Z,64.38
2022-08-05T07:03:17.102Z,65.60
2022-08-05T07:05:44.080Z,63.79
2022-08-05T07:08:13.329Z,64.45
2022-08-05T07:10:52.480Z,64.99
2022-08-05T07:13:58.792Z,64.68
2022-08-05T07:18:00.085Z,65.84
2022-08-05T07:20:16.865Z,66.63
2022-08-05T07:22:22.386Z,67.43
2022-08-05T07:24:57.039Z,68.70
2022-08-05T07:27:27.190Z,68.17
2022-08-05T07:30:25.329Z,68.11
2022-08-05T07:32:43.392Z,67.35
2022-08-05T07:35:55.771Z,68.58
2022-08-05T07:38:01.303Z,67.28
2022-08-05T07:40:33.123Z,67.73
2022-08-05T07:43:04.765Z,66.67
2022-08-05T07:45:57.083Z,66.57
2022-08-05T07:49:01.972Z,66.04
2022-08-05T07:51:23.369Z,65.86
2022-08-05T07:53:58.062Z,64.93
2022-08-05T07:57:00.517Z,64.50
2022-08-05T07:59:10.953Z,64.10
2022-08-05T08:01:41.546Z,64.92
2022-08-05T08:04:24.400Z,65.11
2022-08-05T08:07:05.621Z,64.17
2022-08-05T08:09:34.441Z,65.09
2022-08-05T08:12:09.043Z,64.63
2022-08-05T08:14:42.308Z,64.69
2022-08-05T08:17:21.224Z,65.34
2022-08-05T08:20:22.067Z,65.49
2022-08-05T08:22:35.182Z,65.19
2022-08-05T08:25:03.521Z,64.26
2022-08-05T08:27:39.968Z,64.78
2022-08-05T08:30:29.596Z,64.43
2022-08-05T08:33:02.490Z,65.71
2022-08-05T08:35:35.017Z,68.42
2022-08-05T08:38:07.825Z,68.87
2022-08-05T08:40:35.355Z,69.50
2022-08-05T08:44:56.502Z,69.63
2022-08-05T08:45:53.972Z,67.85
2022-08-05T08:48:41.573Z,68.15
2022-08-05T08:52:02.052Z,68.22
2022-08-05T08:53:55.339Z,67.82
2022-08-05T08:56:23.551Z,67.53
2022-08-05T08:58:53.925Z,63.68
2022-08-05T09:01:20.464Z,64.90
2022-08-05T09:03:54.602Z,64.74
2022-08-05T09:06:27.978Z,65.03
2022-08-05T09:08:57.656Z,64.66
2022-08-05T09:11:50.983Z,63.91
2022-08-05T09:14:57.071Z,65.23
2022-08-05T09:17:00.341Z,64.03
2022-08-05T09:19:27.981Z,64.29
2022-08-05T09:22:21.999Z,61.72
2022-08-05T09:24:59.828Z,61.71
2022-08-05T09:28:04.632Z,60.73
2022-08-05T09:30:26.376Z,61.04
2022-08-05T09:32:53.629Z,60.80
2022-08-05T09:35:27.055Z,59.60
2022-08-05T09:38:17.267Z,58.51
2022-08-05T09:40:51.978Z,56.45
2022-08-05T09:43:40.804Z,55.25
2022-08-05T09:46:27.977Z,53.55
2022-08-05T09:49:08.105Z,52.50
2022-08-05T09:51:43.191Z,52.82
2022-08-05T09:54:11.266Z,53.95
2022-08-05T09:56:39.224Z,53.71
2022-08-05T09:59:09.504Z,53.52
2022-08-05T10:01:45.487Z,54.30
2022-08-05T10:04:16.237Z,56.37
2022-08-05T10:06:59.658Z,54.69
2022-08-05T10:09:29.633Z,56.53
2022-08-05T10:12:30.251Z,56.00
2022-08-05T10:15:20.293Z,56.09
2022-08-05T10:18:03.391Z,55.26
2022-08-05T10:20:31.358Z,55.35
2022-08-05T10:23:01.137Z,54.34
2022-08-05T10:25:28.357Z,54.66
2022-08-05T10:28:13.612Z,55.07
2022-08-05T10:32:53.353Z,55.98
2022-08-05T10:33:34.233Z,57.27
2022-08-05T10:36:04.484Z,58.94
2022-08-05T10:38:33.060Z,59.24
2022-08-05T10:41:07.857Z,58.10
2022-08-05T10:43:47.434Z,59.26
2022-08-05T10:46:17.634Z,58.88
2022-08-05T10:48:57.276Z,58.46
2022-08-05T10:51:29.256Z,58.30
2022-08-05T10:54:05.765Z,57.23
2022-08-05T10:56:53.115Z,57.11
2022-08-05T11:00:02.028Z,57.10
2022-08-05T11:02:38.304Z,56.03
2022-08-05T11:05:09.310Z,55.60
2022-08-05T11:08:01.264Z,55.38
2022-08-05T11:10:29.325Z,54.89
2022-08-05T11:12:57.440Z,53.99
2022-08-05T11:16:01.391Z,53.59
2022-08-05T11:18:30.096Z,53.82
2022-08-05T11:20:59.281Z,53.38
2022-08-05T11:24:04.208Z,53.41
2022-08-05T11:26:28.404Z,51.54
2022-08-05T11:29:06.930Z,52.05
2022-08-05T11:31:54.345Z,52.22
2022-08-05T11:34:50.918Z,52.46
2022-08-05T11:38:29.937Z,50.52
2022-08-05T11:41:34.416Z,51.47
2022-08-05T11:44:07.378Z,51.05
2022-08-05T11:46:58.354Z,49.87
2022-08-05T11:49:25.338Z,49.63
2022-08-05T11:51:53.410Z,49.32
2022-08-05T11:54:33.193Z,50.46
2022-08-05T11:57:08.738Z,50.60
2022-08-05T11:59:50.651Z,49.70
2022-08-05T12:02:30.351Z,50.73
2022-08-05T12:05:00.979Z,50.24
2022-08-05T12:08:08.132Z,49.44
2022-08-05T12:10:23.035Z,49.90
2022-08-05T12:12:59.860Z,48.88
2022-08-05T12:15:38.095Z,49.36
2022-08-05T12:18:11.142Z,49.88
2022-08-05T12:20:39.304Z,49.05
2022-08-05T12:23:10.446Z,48.12
2022-08-05T12:25:53.745Z,48.19
2022-08-05T12:28:34.937Z,49.04
2022-08-05T12:31:04.054Z,49.50
2022-08-05T12:33:36.749Z,49.67
2022-08-05T12:36:08.574Z,49.35
2022-08-05T12:38:41.096Z,49.02
2022-08-05T12:41:14.122Z,49.38
2022-08-05T12:43:57.440Z,50.85
2022-08-05T12:46:28.789Z,50.34
2022-08-05T12:48:57.746Z,49.57
2022-08-05T12:52:12.390Z,48.01
2022-08-05T12:54:16.895Z,48.55
2022-08-05T12:56:53.019Z,48.52
2022-08-05T12:59:27.672Z,48.51
2022-08-05T13:02:12.104Z,49.13
2022-08-05T13:04:54.611Z,49.04
2022-08-05T13:07:55.008Z,48.76
2022-08-05T13:10:15.005Z,48.61
2022-08-05T13:12:57.413Z,48.20
2022-08-05T13:15:35.990Z,48.13
2022-08-05T13:18:08.389Z,47.77
2022-08-05T13:20:35.528Z,47.46
2022-08-05T13:23:07.594Z,47.39
2022-08-05T13:25:52.684Z,47.47
2022-08-05T13:28:21.960Z,47.36
2022-08-05T13:30:51.034Z,47.44
2022-08-05T13:34:21.106Z,46.70
2022-08-05T13:36:05.294Z,47.24
2022-08-05T13:38:36.033Z,46.11
2022-08-05T13:41:05.951Z,46.60
2022-08-05T13:43:43.962Z,46.08
2022-08-05T13:46:30.798Z,45.98
2022-08-05T13:49:10.237Z,47.11
2022-08-05T13:51:40.830Z,46.09
2022-08-05T13:54:13.443Z,46.09
2022-08-05T13:56:45.153Z,46.23
2022-08-05T13:59:21.081Z,46.12
2022-08-05T14:01:58.524Z,45.35
2022-08-05T14:04:51.054Z,45.29
2022-08-05T14:07:25.778Z,45.81
2022-08-05T14:10:13.367Z,45.10
2022-08-05T14:12:42.664Z,45.73
2022-08-05T14:16:09.286Z,45.71
2022-08-05T14:18:01.296Z,45.26
2022-08-05T14:20:29.928Z,45.24
2022-08-05T14:22:58.236Z,45.20
2022-08-05T14:25:27.946Z,44.94
2022-08-05T14:27:55.482Z,44.70
2022-08-05T14:30:26.360Z,45.49
2022-08-05T14:32:53.654Z,46.57
2022-08-05T14:35:20.866Z,46.78
2022-08-05T14:37:53.542Z,47.91
2022-08-05T14:40:24.474Z,48.43
2022-08-05T14:42:52.444Z,47.06
2022-08-05T14:45:19.242Z,47.29
2022-08-05T14:48:05.692Z,47.02
2022-08-05T14:50:32.959Z,48.34
2022-08-05T14:53:02.794Z,49.28
2022-08-05T14:55:39.272Z,49.51
2022-08-05T14:58:10.897Z,49.19
2022-08-05T15:00:39.651Z,51.00
2022-08-05T15:03:27.337Z,51.87
2022-08-05T15:06:07.577Z,52.74
2022-08-05T15:08:58.739Z,53.34
2022-08-05T15:11:52.692Z,54.61
2022-08-05T15:14:33.367Z,55.97
2022-08-05T15:17:01.502Z,58.35
2022-08-05T15:19:30.366Z,60.30
2022-08-05T15:21:59.952Z,60.19
2022-08-05T15:24:27.330Z,62.65
2022-08-05T15:26:53.790Z,64.29
2022-08-05T15:29:22.622Z,64.15
2022-08-05T15:31:52.864Z,64.06
2022-08-05T15:34:32.294Z,64.07
2022-08-05T15:37:06.784Z,64.89
2022-08-05T15:40:59.836Z,64.70
2022-08-05T15:42:49.920Z,64.54
2022-08-05T15:45:14.651Z,64.15
2022-08-05T15:47:42.606Z,62.59
2022-08-05T15:50:15.116Z,62.20
2022-08-05T15:52:53.392Z,62.13
2022-08-05T15:55:25.069Z,61.79
2022-08-05T15:58:09.030Z,61.30
2022-08-05T16:00:50.486Z,61.64
2022-08-05T16:03:22.186Z,61.79
2022-08-05T16:05:52.618Z,61.85
2022-08-05T16:08:22.890Z,61.07
2022-08-05T16:10:56.941Z,60.97
2022-08-05T16:13:32.066Z,60.63
2022-08-05T16:16:01.091Z,60.82
2022-08-05T16:18:29.109Z,60.53
2022-08-05T16:20:55.865Z,60.23
2022-08-05T16:23:22.388Z,59.84
2022-08-05T16:25:49.870Z,60.09
2022-08-05T16:28:24.152Z,58.94
2022-08-05T16:30:52.189Z,58.87
2022-08-05T16:33:19.378Z,58.37
2022-08-05T16:35:49.907Z,58.71
2022-08-05T16:38:25.098Z,58.25
2022-08-05T16:41:00.162Z,61.67
2022-08-05T16:43:32.041Z,57.00
2022-08-05T16:46:04.248Z,56.55
2022-08-05T16:48:35.874Z,56.83
2022-08-05T16:51:02.494Z,57.22
2022-08-05T16:54:04.926Z,57.68
2022-08-05T16:56:22.814Z,57.48
2022-08-05T16:58:49.942Z,58.53
2022-08-05T17:01:16.544Z,58.56
2022-08-05T17:03:45.485Z,58.01
2022-08-05T17:06:11.953Z,57.55
2022-08-05T17:08:53.528Z,57.88
2022-08-05T17:11:25.752Z,57.82
2022-08-05T17:14:00.529Z,58.54
2022-08-05T17:16:37.903Z,58.72
2022-08-05T17:19:09.563Z,58.29
2022-08-05T17:21:39.774Z,58.34
2022-08-05T17:24:20.496Z,58.50
2022-08-05T17:26:55.861Z,58.57
2022-08-05T17:29:32.812Z,58.65
2022-08-05T17:32:00.819Z,58.15
2022-08-05T17:34:29.529Z,58.78
2022-08-05T17:36:56.757Z,58.46
2022-08-05T17:39:24.514Z,58.13
2022-08-05T17:42:18.568Z,58.47
2022-08-05T17:44:50.122Z,57.60
2022-08-05T17:47:23.052Z,57.87
2022-08-05T17:49:59.779Z,58.13
2022-08-05T17:52:30.263Z,58.90
2022-08-05T17:54:56.752Z,58.26
2022-08-05T17:57:23.244Z,57.30
2022-08-05T18:00:05.582Z,57.39
2022-08-05T18:02:35.838Z,57.39
2022-08-05T18:05:06.502Z,57.16
2022-08-05T18:07:41.724Z,56.44
2022-08-05T18:10:20.390Z,56.28
2022-08-05T18:12:48.634Z,55.71
2022-08-05T18:15:15.195Z,54.96
2022-08-05T18:17:59.194Z,55.63
2022-08-05T18:20:29.555Z,55.42
2022-08-05T18:23:09.487Z,54.94
2022-08-05T18:25:39.756Z,55.27
2022-08-05T18:28:11.503Z,55.15
2022-08-05T18:30:39.003Z,55.08
2022-08-05T18:33:07.325Z,55.26
2022-08-05T18:36:00.043Z,54.72
2022-08-05T18:38:26.101Z,54.31
2022-08-05T18:41:58.284Z,53.48
2022-08-05T18:43:42.567Z,54.15
2022-08-05T18:46:10.165Z,54.08
2022-08-05T18:48:41.610Z,53.88
2022-08-05T18:52:06.151Z,53.83
2022-08-05T18:54:14.431Z,53.85
2022-08-05T18:56:41.728Z,53.32
2022-08-05T18:59:43.652Z,53.54
2022-08-05T19:02:04.714Z,53.57
2022-08-05T19:04:37.736Z,54.15
2022-08-05T19:07:24.144Z,54.66
2022-08-05T19:09:50.719Z,54.89
2022-08-05T19:12:20.215Z,54.77
2022-08-05T19:15:00.312Z,54.63
2022-08-05T19:17:59.494Z,54.46
2022-08-05T19:20:15.748Z,54.17
2022-08-05T19:22:44.275Z,55.19
2022-08-05T19:25:11.142Z,55.75
2022-08-05T19:27:56.149Z,54.33
2022-08-05T19:30:22.588Z,54.79
2022-08-05T19:32:50.396Z,56.56
2022-08-05T19:35:17.049Z,56.59
2022-08-05T19:38:06.122Z,55.84
2022-08-05T19:40:34.687Z,55.22
2022-08-05T19:43:05.190Z,55.52
2022-08-05T19:45:33.182Z,55.48
2022-08-05T19:48:05.332Z,54.97
2022-08-05T19:50:32.826Z,55.27
2022-08-05T19:53:09.477Z,55.69
2022-08-05T19:56:15.639Z,55.64
2022-08-05T19:58:28.511Z,55.08
2022-08-05T20:00:56.390Z,55.47
2022-08-05T20:03:24.380Z,55.08
2022-08-05T20:05:56.451Z,54.93
2022-08-05T20:08:24.398Z,54.70
2022-08-05T20:10:51.907Z,55.41
2022-08-05T20:13:19.389Z,53.93
2022-08-05T20:15:57.684Z,55.05
2022-08-05T20:18:33.391Z,54.80
2022-08-05T20:21:04.679Z,54.93
2022-08-05T20:23:39.602Z,54.70
2022-08-05T20:26:17.273Z,55.79
2022-08-05T20:28:50.355Z,54.70
2022-08-05T20:31:18.048Z,55.13
2022-08-05T20:33:50.069Z,56.36
2022-08-05T20:36:17.985Z,56.26
2022-08-05T20:38:54.422Z,55.94
2022-08-05T20:41:27.399Z,54.36
2022-08-05T20:44:17.162Z,56.13
2022-08-05T20:46:47.077Z,56.42
2022-08-05T20:49:13.828Z,56.53
2022-08-05T20:51:40.394Z,55.82
2022-08-05T20:54:06.992Z,55.87
2022-08-05T20:56:42.410Z,56.33
2022-08-05T20:59:13.911Z,56.80
2022-08-05T21:01:42.465Z,56.67
2022-08-05T21:04:12.246Z,56.38
2022-08-05T21:06:45.222Z,56.23
2022-08-05T21:09:14.361Z,56.55
2022-08-05T21:12:10.797Z,55.07
2022-08-05T21:14:34.852Z,55.00
2022-08-05T21:17:03.135Z,56.62
2022-08-05T21:19:43.355Z,57.94
2022-08-05T21:22:17.627Z,58.30
2022-08-05T21:24:45.123Z,58.35
2022-08-05T21:27:18.051Z,57.97
2022-08-05T21:29:48.467Z,58.64
2022-08-05T21:32:20.086Z,58.44
2022-08-05T21:35:08.262Z,58.83
2022-08-05T21:37:33.727Z,58.63
2022-08-05T21:40:07.259Z,58.29
2022-08-05T21:42:44.118Z,58.77
2022-08-05T21:45:11.596Z,58.87
2022-08-05T21:47:56.595Z,58.54
2022-08-05T21:50:25.715Z,58.35
2022-08-05T21:52:52.226Z,58.87
2022-08-05T21:56:01.497Z,58.59
2022-08-05T21:58:10.533Z,58.57
2022-08-05T22:00:38.481Z,58.99
2022-08-05T22:03:06.865Z,59.34
2022-08-05T22:05:48.754Z,61.48
2022-08-05T22:08:22.177Z,62.66
2022-08-05T22:10:51.438Z,62.97
2022-08-05T22:14:31.361Z,62.89
2022-08-05T22:16:20.403Z,62.25
2022-08-05T22:18:53.278Z,62.37
2022-08-05T22:21:19.874Z,62.41
2022-08-05T22:24:13.156Z,62.12
2022-08-05T22:27:16.466Z,61.91
2022-08-05T22:29:44.046Z,62.84
2022-08-05T22:32:12.668Z,62.75
2022-08-05T22:34:44.197Z,62.64
2022-08-05T22:37:12.488Z,62.15
2022-08-05T22:39:39.226Z,62.05
2022-08-05T22:42:12.543Z,62.13
2022-08-05T22:44:48.512Z,62.35
2022-08-05T22:47:29.897Z,62.95
2022-08-05T22:50:21.847Z,63.65
2022-08-05T22:52:45.479Z,63.10
2022-08-05T22:55:19.466Z,62.79
2022-08-05T22:57:49.645Z,62.46
2022-08-05T23:00:20.742Z,62.28
2022-08-05T23:02:48.563Z,61.85
2022-08-05T23:05:15.728Z,60.59
2022-08-05T23:07:48.657Z,60.50
2022-08-05T23:10:19.881Z,60.18
2022-08-05T23:12:51.709Z,60.27
2022-08-05T23:15:22.692Z,60.76
2022-08-05T23:18:00.466Z,64.45
2022-08-05T23:20:31.183Z,64.61
2022-08-05T23:22:58.711Z,64.93
2022-08-05T23:25:52.860Z,64.72
2022-08-05T23:28:12.743Z,63.98
2022-08-05T23:30:43.522Z,63.84
2022-08-05T23:33:16.172Z,64.04
2022-08-05T23:35:50.153Z,63.40
2022-08-05T23:38:17.265Z,62.86
2022-08-05T23:40:50.175Z,61.02
2022-08-05T23:43:25.350Z,60.20
2022-08-05T23:46:20.830Z,60.84
2022-08-05T23:48:59.667Z,62.78
2022-08-05T23:51:52.638Z,63.83
2022-08-05T23:54:31.719Z,63.91
2022-08-05T23:57:04.069Z,63.44
2022-08-05T23:59:37.683Z,64.60
